Time;durP1;ratioP1;P1;durP2;ratioP2;P2;SDS_P1;SDS_P2;PMS_P1;PMS_P2;Temp;Humidity;BMP_temperature;BMP_pressure;BME280_temperature;BME280_humidity;BME280_pressure;Samples;Min_cycle;Max_cycle;Signal;HPM_P1;HPM_P2
2022/03/24 00:00:37;;;;;;;25.25;15.45;;;;;;;;;;6181784;23;20040;-52
2022/03/24 00:03:03;;;;;;;26.30;15.48;;;;;;;;;;6207754;23;20012;-52
2022/03/24 00:05:28;;;;;;;32.38;16.15;;;;;;;;;;6200746;23;20572;-52
2022/03/24 00:07:55;;;;;;;29.55;18.13;;;;;;;;;;6179435;23;20396;-50
2022/03/24 00:10:20;;;;;;;31.15;17.85;;;;;;;;;;6206697;23;20214;-54
2022/03/24 00:12:45;;;;;;;28.80;17.30;;;;;;;;;;6206048;23;20011;-51
2022/03/24 00:15:11;;;;;;;29.23;16.67;;;;;;;;;;6207774;23;20073;-53
2022/03/24 00:17:36;;;;;;;27.10;16.98;;;;;;;;;;6207179;23;20012;-50
2022/03/24 00:20:02;;;;;;;29.17;16.00;;;;;;;;;;6209302;23;20027;-53
2022/03/24 00:22:27;;;;;;;29.45;17.05;;;;;;;;;;6205952;23;20043;-54
2022/03/24 00:24:53;;;;;;;29.90;17.35;;;;;;;;;;6209585;23;20463;-54
2022/03/24 00:27:18;;;;;;;27.38;16.33;;;;;;;;;;6205772;23;20064;-49
2022/03/24 00:29:44;;;;;;;32.55;17.45;;;;;;;;;;6208817;23;20021;-53
2022/03/24 00:32:09;;;;;;;32.63;17.27;;;;;;;;;;6206109;23;20001;-52
2022/03/24 00:34:35;;;;;;;30.08;18.15;;;;;;;;;;6208474;23;20029;-49
2022/03/24 00:37:02;;;;;;;29.67;16.48;;;;;;;;;;6207379;23;20012;-53
2022/03/24 00:39:30;;;;;;;30.20;16.52;;;;;;;;;;6207522;23;20459;-52
2022/03/24 00:41:55;;;;;;;26.70;16.63;;;;;;;;;;6206366;23;20074;-52
2022/03/24 00:44:21;;;;;;;32.80;17.58;;;;;;;;;;6181059;23;20021;-52
2022/03/24 00:46:46;;;;;;;31.25;17.33;;;;;;;;;;6206901;23;20008;-50
2022/03/24 00:49:11;;;;;;;33.13;18.20;;;;;;;;;;6208671;23;20381;-50
2022/03/24 00:51:36;;;;;;;30.10;16.92;;;;;;;;;;6206855;23;20019;-52
2022/03/24 00:54:03;;;;;;;27.90;16.70;;;;;;;;;;6208738;23;20013;-52
2022/03/24 00:56:28;;;;;;;29.17;17.23;;;;;;;;;;6205978;23;20017;-52
2022/03/24 00:58:55;;;;;;;27.40;16.60;;;;;;;;;;6209010;23;20036;-55
2022/03/24 01:01:20;;;;;;;30.48;18.70;;;;;;;;;;6205561;23;20046;-53
2022/03/24 01:03:45;;;;;;;28.92;17.02;;;;;;;;;;6181733;23;20013;-50
2022/03/24 01:06:13;;;;;;;28.17;17.52;;;;;;;;;;6206732;23;20091;-52
2022/03/24 01:08:39;;;;;;;28.13;16.45;;;;;;;;;;6208697;23;20044;-52
2022/03/24 01:11:07;;;;;;;24.83;15.48;;;;;;;;;;6205648;23;20028;-54
2022/03/24 01:13:34;;;;;;;29.73;16.23;;;;;;;;;;6206390;23;20012;-49
2022/03/24 01:15:59;;;;;;;25.05;16.65;;;;;;;;;;6206950;23;20028;-52
2022/03/24 01:18:24;;;;;;;29.60;16.27;;;;;;;;;;6207288;23;20048;-52
2022/03/24 01:20:50;;;;;;;37.05;19.50;;;;;;;;;;6206571;23;20423;-52
2022/03/24 01:23:15;;;;;;;30.63;17.17;;;;;;;;;;6207889;23;20016;-51
2022/03/24 01:25:44;;;;;;;30.83;17.80;;;;;;;;;;6205938;23;20009;-53
2022/03/24 01:28:09;;;;;;;29.67;18.83;;;;;;;;;;6207876;23;20008;-52
2022/03/24 01:30:36;;;;;;;27.40;17.02;;;;;;;;;;6205972;23;20091;-51
2022/03/24 01:33:01;;;;;;;29.30;17.67;;;;;;;;;;6206824;23;20028;-52
2022/03/24 01:35:26;;;;;;;34.35;18.73;;;;;;;;;;6204683;23;20021;-51
2022/03/24 01:37:52;;;;;;;31.08;16.67;;;;;;;;;;6208071;23;20013;-52
2022/03/24 01:40:17;;;;;;;30.85;17.73;;;;;;;;;;6205208;23;20005;-54
2022/03/24 01:42:43;;;;;;;26.98;17.15;;;;;;;;;;6207967;23;20062;-53
2022/03/24 01:45:09;;;;;;;27.25;16.98;;;;;;;;;;6206455;23;20064;-49
2022/03/24 01:47:35;;;;;;;37.58;17.70;;;;;;;;;;6208641;23;20013;-51
2022/03/24 01:50:00;;;;;;;31.10;17.08;;;;;;;;;;6206487;23;20028;-51
2022/03/24 01:52:26;;;;;;;26.67;16.20;;;;;;;;;;6206964;23;20013;-55
2022/03/24 01:54:53;;;;;;;31.10;17.90;;;;;;;;;;6206433;23;20283;-52
2022/03/24 01:57:19;;;;;;;32.92;17.85;;;;;;;;;;6208351;23;20009;-52
2022/03/24 01:59:45;;;;;;;33.05;17.75;;;;;;;;;;6206678;23;20016;-55
2022/03/24 02:02:10;;;;;;;29.23;16.95;;;;;;;;;;6207371;23;20017;-51
2022/03/24 02:04:36;;;;;;;35.15;18.77;;;;;;;;;;6205285;23;20048;-52
2022/03/24 02:07:02;;;;;;;28.92;17.38;;;;;;;;;;6208443;23;20039;-55
2022/03/24 02:09:27;;;;;;;34.55;18.65;;;;;;;;;;6205372;23;20374;-51
2022/03/24 02:11:53;;;;;;;30.85;17.95;;;;;;;;;;6208222;23;20106;-50
2022/03/24 02:14:18;;;;;;;34.97;17.88;;;;;;;;;;6204988;23;20562;-53
2022/03/24 02:16:46;;;;;;;29.15;17.40;;;;;;;;;;6207882;23;20145;-50
2022/03/24 02:19:12;;;;;;;36.72;18.27;;;;;;;;;;6207667;23;20011;-54
2022/03/24 02:21:39;;;;;;;31.77;17.90;;;;;;;;;;6209845;23;20013;-54
2022/03/24 02:24:04;;;;;;;27.77;16.55;;;;;;;;;;6208524;23;20013;-50
2022/03/24 02:26:30;;;;;;;31.05;18.42;;;;;;;;;;6208092;23;20012;-53
2022/03/24 02:28:56;;;;;;;34.58;17.38;;;;;;;;;;6205262;23;20005;-51
2022/03/24 02:31:22;;;;;;;32.25;18.25;;;;;;;;;;6208016;23;20028;-52
2022/03/24 02:33:48;;;;;;;36.80;17.15;;;;;;;;;;6180445;23;20448;-54
2022/03/24 02:36:13;;;;;;;31.27;18.15;;;;;;;;;;6182688;23;20009;-50
2022/03/24 02:38:38;;;;;;;35.00;18.83;;;;;;;;;;6207874;23;20012;-51
2022/03/24 02:41:04;;;;;;;31.45;17.23;;;;;;;;;;6210658;23;20020;-54
2022/03/24 02:43:30;;;;;;;25.55;16.88;;;;;;;;;;6206518;23;20079;-51
2022/03/24 02:45:57;;;;;;;28.15;16.40;;;;;;;;;;6210093;23;20115;-54
2022/03/24 02:48:22;;;;;;;30.80;17.52;;;;;;;;;;6207371;23;20023;-49
2022/03/24 02:50:48;;;;;;;30.55;18.80;;;;;;;;;;6209775;23;20016;-51
2022/03/24 02:53:14;;;;;;;31.52;17.98;;;;;;;;;;6207803;23;20089;-49
2022/03/24 02:55:39;;;;;;;35.20;17.70;;;;;;;;;;6209053;23;20013;-51
2022/03/24 02:58:05;;;;;;;26.55;17.75;;;;;;;;;;6208530;23;20008;-52
2022/03/24 03:00:30;;;;;;;35.40;18.55;;;;;;;;;;6209083;23;20016;-49
2022/03/24 03:02:55;;;;;;;32.45;18.95;;;;;;;;;;6201515;23;20526;-52
2022/03/24 03:05:24;;;;;;;31.52;17.20;;;;;;;;;;6207415;23;20036;-52
2022/03/24 03:07:51;;;;;;;32.00;17.77;;;;;;;;;;6209413;23;20028;-51
2022/03/24 03:10:17;;;;;;;26.17;16.85;;;;;;;;;;6208755;23;20263;-51
2022/03/24 03:12:44;;;;;;;32.00;17.52;;;;;;;;;;6207225;23;20052;-50
2022/03/24 03:15:10;;;;;;;34.08;17.98;;;;;;;;;;6208054;23;20029;-54
2022/03/24 03:17:36;;;;;;;35.40;18.10;;;;;;;;;;6209330;23;20027;-54
2022/03/24 03:20:02;;;;;;;32.05;17.95;;;;;;;;;;6209133;23;20012;-51
2022/03/24 03:22:27;;;;;;;36.42;17.58;;;;;;;;;;6206976;23;20592;-50
2022/03/24 03:24:53;;;;;;;32.53;18.42;;;;;;;;;;6209916;23;20052;-48
2022/03/24 03:27:18;;;;;;;32.92;18.90;;;;;;;;;;6206865;23;20008;-48
2022/03/24 03:29:43;;;;;;;35.22;20.13;;;;;;;;;;6210516;23;20021;-52
2022/03/24 03:32:10;;;;;;;29.63;17.73;;;;;;;;;;6207513;23;20015;-52
2022/03/24 03:34:36;;;;;;;31.75;17.63;;;;;;;;;;6208508;23;20001;-48
2022/03/24 03:37:01;;;;;;;34.20;18.58;;;;;;;;;;6197486;23;20013;-50
2022/03/24 03:39:27;;;;;;;26.33;15.52;;;;;;;;;;6208331;23;20062;-51
2022/03/24 03:41:52;;;;;;;30.73;17.63;;;;;;;;;;6208048;23;20009;-49
2022/03/24 03:44:17;;;;;;;33.58;18.25;;;;;;;;;;6207276;23;20009;-50
2022/03/24 03:46:43;;;;;;;37.72;18.33;;;;;;;;;;6208210;23;20091;-54
2022/03/24 03:49:08;;;;;;;34.67;19.85;;;;;;;;;;6209686;23;20008;-52
2022/03/24 03:51:34;;;;;;;29.13;18.98;;;;;;;;;;6207649;23;20028;-49
2022/03/24 03:53:59;;;;;;;36.75;18.75;;;;;;;;;;6208229;23;20502;-54
2022/03/24 03:56:25;;;;;;;50.95;18.10;;;;;;;;;;6181895;23;20442;-51
2022/03/24 03:58:50;;;;;;;32.38;16.92;;;;;;;;;;6208235;23;20019;-53
2022/03/24 04:01:15;;;;;;;30.83;15.98;;;;;;;;;;6208249;23;20016;-49
2022/03/24 04:03:41;;;;;;;28.17;17.15;;;;;;;;;;6208060;23;20024;-51
2022/03/24 04:06:10;;;;;;;30.50;16.90;;;;;;;;;;6209404;23;20009;-52
2022/03/24 04:08:36;;;;;;;34.30;19.92;;;;;;;;;;6207654;23;20004;-50
2022/03/24 04:11:02;;;;;;;28.48;16.55;;;;;;;;;;6208305;23;20084;-50
2022/03/24 04:13:28;;;;;;;32.65;19.02;;;;;;;;;;6207291;23;20047;-50
2022/03/24 04:15:54;;;;;;;29.70;17.35;;;;;;;;;;6207945;23;20024;-52
2022/03/24 04:18:20;;;;;;;31.30;17.75;;;;;;;;;;6208252;23;20032;-53
2022/03/24 04:20:45;;;;;;;34.28;18.23;;;;;;;;;;6206863;23;20032;-51
2022/03/24 04:23:14;;;;;;;33.97;18.58;;;;;;;;;;6204262;23;20019;-51
2022/03/24 04:25:39;;;;;;;33.08;17.05;;;;;;;;;;6205003;23;20012;-51
2022/03/24 04:28:05;;;;;;;34.28;16.60;;;;;;;;;;6205331;23;20011;-49
2022/03/24 04:30:31;;;;;;;33.40;16.33;;;;;;;;;;6205025;23;20047;-50
2022/03/24 04:32:56;;;;;;;29.73;18.13;;;;;;;;;;6205038;23;20011;-50
2022/03/24 04:35:22;;;;;;;25.63;16.40;;;;;;;;;;6174426;23;20017;-50
2022/03/24 04:37:48;;;;;;;28.85;17.35;;;;;;;;;;6207587;23;20022;-51
2022/03/24 04:40:15;;;;;;;33.08;18.23;;;;;;;;;;6202496;23;20019;-51
2022/03/24 04:42:41;;;;;;;29.52;17.55;;;;;;;;;;6202679;23;20074;-52
2022/03/24 04:45:06;;;;;;;36.38;18.13;;;;;;;;;;6202687;23;20001;-49
2022/03/24 04:47:32;;;;;;;28.63;16.00;;;;;;;;;;6202067;23;20017;-49
2022/03/24 04:49:57;;;;;;;34.72;18.58;;;;;;;;;;6203568;23;20062;-54
2022/03/24 04:52:22;;;;;;;27.42;17.08;;;;;;;;;;6174868;23;20020;-50
2022/03/24 04:54:48;;;;;;;34.83;18.38;;;;;;;;;;6173941;23;20017;-52
2022/03/24 04:57:13;;;;;;;27.38;17.52;;;;;;;;;;6194016;23;20045;-49
2022/03/24 04:59:39;;;;;;;37.10;17.52;;;;;;;;;;6196729;23;20020;-51
2022/03/24 05:02:05;;;;;;;33.15;18.40;;;;;;;;;;6168714;23;20028;-50
2022/03/24 05:04:30;;;;;;;31.38;18.08;;;;;;;;;;6194214;23;20060;-49
2022/03/24 05:06:55;;;;;;;31.05;18.90;;;;;;;;;;6197009;23;20013;-50
2022/03/24 05:09:20;;;;;;;31.95;17.80;;;;;;;;;;6196600;23;20012;-51
2022/03/24 05:11:46;;;;;;;35.17;19.85;;;;;;;;;;6195670;23;20020;-50
2022/03/24 05:14:11;;;;;;;38.28;19.95;;;;;;;;;;6193170;23;20079;-48
2022/03/24 05:16:37;;;;;;;36.65;19.77;;;;;;;;;;6196458;22;20051;-52
2022/03/24 05:19:03;;;;;;;36.10;20.38;;;;;;;;;;6196967;23;20086;-51
2022/03/24 05:21:28;;;;;;;37.03;20.63;;;;;;;;;;6198312;23;20152;-51
2022/03/24 05:23:53;;;;;;;38.05;20.98;;;;;;;;;;6200562;23;20013;-53
2022/03/24 05:26:21;;;;;;;39.35;21.00;;;;;;;;;;6199431;23;20039;-52
2022/03/24 05:28:46;;;;;;;30.83;18.65;;;;;;;;;;6200052;23;20009;-51
2022/03/24 05:31:12;;;;;;;42.25;20.42;;;;;;;;;;6200124;23;20076;-48
2022/03/24 05:33:37;;;;;;;39.97;21.75;;;;;;;;;;6202000;23;20513;-49
2022/03/24 05:36:03;;;;;;;37.20;21.50;;;;;;;;;;6204596;23;20019;-49
2022/03/24 05:38:28;;;;;;;43.15;20.52;;;;;;;;;;6204853;23;20020;-51
2022/03/24 05:40:53;;;;;;;40.63;21.50;;;;;;;;;;6208052;23;20004;-52
2022/03/24 05:43:18;;;;;;;42.20;19.73;;;;;;;;;;6204413;23;20024;-49
2022/03/24 05:45:44;;;;;;;38.03;20.45;;;;;;;;;;6208077;23;20004;-49
2022/03/24 05:48:09;;;;;;;37.88;21.25;;;;;;;;;;6203268;23;20021;-52
2022/03/24 05:50:35;;;;;;;36.90;19.65;;;;;;;;;;6205738;23;20799;-50
2022/03/24 05:53:00;;;;;;;35.05;17.48;;;;;;;;;;6198544;23;20066;-50
2022/03/24 05:55:25;;;;;;;41.17;18.75;;;;;;;;;;6198896;23;20388;-52
2022/03/24 05:57:50;;;;;;;38.97;19.75;;;;;;;;;;6195726;23;20522;-50
2022/03/24 06:00:16;;;;;;;33.78;18.63;;;;;;;;;;6200035;23;20023;-52
2022/03/24 06:02:41;;;;;;;32.15;19.70;;;;;;;;;;6200599;23;20019;-50
2022/03/24 06:05:09;;;;;;;40.97;20.95;;;;;;;;;;6202785;23;20016;-54
2022/03/24 06:07:35;;;;;;;36.17;21.10;;;;;;;;;;6202368;23;20008;-51
2022/03/24 06:10:01;;;;;;;46.53;22.65;;;;;;;;;;6201316;23;20027;-50
2022/03/24 06:12:26;;;;;;;41.10;21.33;;;;;;;;;;6201271;23;20583;-53
2022/03/24 06:14:51;;;;;;;39.17;18.92;;;;;;;;;;6201848;23;20036;-50
2022/03/24 06:17:18;;;;;;;44.20;21.50;;;;;;;;;;6202078;23;20009;-52
2022/03/24 06:19:45;;;;;;;41.45;21.42;;;;;;;;;;6201096;23;20013;-53
2022/03/24 06:22:12;;;;;;;41.33;20.98;;;;;;;;;;6202090;23;20009;-53
2022/03/24 06:24:37;;;;;;;41.00;22.13;;;;;;;;;;6202086;23;20012;-51
2022/03/24 06:27:02;;;;;;;38.58;19.67;;;;;;;;;;6202035;23;20695;-51
2022/03/24 06:29:28;;;;;;;40.45;20.55;;;;;;;;;;6200058;23;20020;-51
2022/03/24 06:31:54;;;;;;;39.63;20.65;;;;;;;;;;6200398;23;20012;-53
2022/03/24 06:34:19;;;;;;;36.20;20.35;;;;;;;;;;6200723;23;20028;-50
2022/03/24 06:36:44;;;;;;;39.25;21.20;;;;;;;;;;6200418;23;20029;-54
2022/03/24 06:39:09;;;;;;;43.10;21.50;;;;;;;;;;6201002;23;20031;-52
2022/03/24 06:41:35;;;;;;;39.00;20.35;;;;;;;;;;6204167;23;20405;-50
2022/03/24 06:44:00;;;;;;;40.58;21.25;;;;;;;;;;6200175;23;20436;-52
2022/03/24 06:46:26;;;;;;;37.42;19.83;;;;;;;;;;6200835;23;20017;-53
2022/03/24 06:48:52;;;;;;;34.55;20.35;;;;;;;;;;6206612;23;20013;-53
2022/03/24 06:51:17;;;;;;;38.53;21.27;;;;;;;;;;6208335;23;20056;-53
2022/03/24 06:53:43;;;;;;;36.08;20.27;;;;;;;;;;6206771;23;20457;-54
2022/03/24 06:56:08;;;;;;;40.35;20.52;;;;;;;;;;6208724;23;20029;-56
2022/03/24 06:58:33;;;;;;;41.35;20.60;;;;;;;;;;6206803;23;20290;-56
2022/03/24 07:00:59;;;;;;;36.33;21.98;;;;;;;;;;6183844;23;20365;-53
2022/03/24 07:03:24;;;;;;;35.95;19.83;;;;;;;;;;6204947;23;20070;-53
2022/03/24 07:05:49;;;;;;;33.88;19.77;;;;;;;;;;6209506;23;20019;-55
2022/03/24 07:08:14;;;;;;;41.47;22.08;;;;;;;;;;6180084;23;20795;-53
2022/03/24 07:10:40;;;;;;;36.58;21.25;;;;;;;;;;6209180;23;20070;-55
2022/03/24 07:13:05;;;;;;;37.20;21.55;;;;;;;;;;6182820;23;20024;-54
2022/03/24 07:15:31;;;;;;;44.78;23.90;;;;;;;;;;6206280;23;20024;-53
2022/03/24 07:17:56;;;;;;;39.28;21.98;;;;;;;;;;6183176;23;20019;-52
2022/03/24 07:20:23;;;;;;;49.25;22.08;;;;;;;;;;6178246;23;20036;-52
2022/03/24 07:22:48;;;;;;;40.10;20.80;;;;;;;;;;6206878;23;20013;-55
2022/03/24 07:25:14;;;;;;;44.45;21.85;;;;;;;;;;6207834;23;20009;-53
2022/03/24 07:27:42;;;;;;;40.85;20.65;;;;;;;;;;6180439;23;20068;-53
2022/03/24 07:30:08;;;;;;;41.50;22.08;;;;;;;;;;6205020;23;20025;-53
2022/03/24 07:32:33;;;;;;;35.92;20.13;;;;;;;;;;6206837;23;20015;-52
2022/03/24 07:34:59;;;;;;;39.55;22.83;;;;;;;;;;6207535;23;20058;-52
2022/03/24 07:37:24;;;;;;;45.85;21.90;;;;;;;;;;6208798;23;20017;-51
2022/03/24 07:39:49;;;;;;;49.83;22.13;;;;;;;;;;6206535;23;20071;-51
2022/03/24 07:42:15;;;;;;;40.28;21.70;;;;;;;;;;6209477;23;20037;-52
2022/03/24 07:44:41;;;;;;;45.70;25.17;;;;;;;;;;6206541;23;20009;-54
2022/03/24 07:47:06;;;;;;;40.70;21.52;;;;;;;;;;6208957;23;20017;-55
2022/03/24 07:49:32;;;;;;;38.35;22.48;;;;;;;;;;6208829;23;20072;-53
2022/03/24 07:51:57;;;;;;;39.03;22.52;;;;;;;;;;6208441;23;20012;-52
2022/03/24 07:54:40;;;;;;;40.55;23.90;;;;;;;;;;6207915;23;20020;-53
2022/03/24 07:57:05;;;;;;;43.47;23.17;;;;;;;;;;6208368;23;20012;-53
2022/03/24 07:59:30;;;;;;;39.35;22.15;;;;;;;;;;6199448;23;19997;-55
2022/03/24 08:01:56;;;;;;;40.75;22.80;;;;;;;;;;6182777;23;20019;-53
2022/03/24 08:04:21;;;;;;;44.97;22.88;;;;;;;;;;6203322;23;20009;-56
2022/03/24 08:06:46;;;;;;;40.47;24.10;;;;;;;;;;6209347;23;20012;-53
2022/03/24 08:09:12;;;;;;;43.08;22.00;;;;;;;;;;6207031;23;20144;-54
2022/03/24 08:11:37;;;;;;;40.22;24.15;;;;;;;;;;6180139;23;20017;-56
2022/03/24 08:14:02;;;;;;;35.42;21.00;;;;;;;;;;6205884;23;20782;-55
2022/03/24 08:16:27;;;;;;;41.95;21.83;;;;;;;;;;6205887;23;20508;-54
2022/03/24 08:18:53;;;;;;;39.83;22.17;;;;;;;;;;6204590;23;20021;-53
2022/03/24 08:21:19;;;;;;;39.78;21.42;;;;;;;;;;6208260;23;20012;-56
2022/03/24 08:23:44;;;;;;;40.95;21.45;;;;;;;;;;6193911;23;20465;-54
2022/03/24 08:26:09;;;;;;;41.50;24.20;;;;;;;;;;6170103;23;20025;-57
2022/03/24 08:28:35;;;;;;;44.50;24.35;;;;;;;;;;6200626;23;20012;-53
2022/03/24 08:31:00;;;;;;;44.38;22.60;;;;;;;;;;6204203;23;20044;-55
2022/03/24 08:33:26;;;;;;;38.50;23.33;;;;;;;;;;6200491;23;20017;-53
2022/03/24 08:35:51;;;;;;;36.13;22.48;;;;;;;;;;6205132;23;20012;-49
2022/03/24 08:38:17;;;;;;;42.38;22.33;;;;;;;;;;6197576;23;20064;-53
2022/03/24 08:40:42;;;;;;;38.38;20.63;;;;;;;;;;6175622;23;20346;-53
2022/03/24 08:43:07;;;;;;;39.40;21.63;;;;;;;;;;6199029;23;20672;-53
2022/03/24 08:45:34;;;;;;;44.33;21.73;;;;;;;;;;6195706;23;20015;-54
2022/03/24 08:47:59;;;;;;;36.17;20.02;;;;;;;;;;6203214;23;20001;-54
2022/03/24 08:50:24;;;;;;;40.88;19.90;;;;;;;;;;6202958;23;20074;-52
2022/03/24 08:52:50;;;;;;;41.17;20.70;;;;;;;;;;6202220;23;20015;-53
2022/03/24 08:55:15;;;;;;;34.47;18.45;;;;;;;;;;6202381;23;20465;-53
2022/03/24 08:57:41;;;;;;;36.63;18.38;;;;;;;;;;6199270;23;20012;-53
2022/03/24 09:00:12;;;;;;;35.70;18.25;;;;;;;;;;6188909;23;20064;-54
2022/03/24 09:02:38;;;;;;;36.08;19.10;;;;;;;;;;6188872;23;20008;-55
2022/03/24 09:05:05;;;;;;;33.35;18.63;;;;;;;;;;6200612;23;20020;-50
2022/03/24 09:07:30;;;;;;;42.83;18.73;;;;;;;;;;6199008;23;20020;-51
2022/03/24 09:09:55;;;;;;;34.08;18.73;;;;;;;;;;6202894;23;20034;-57
2022/03/24 09:12:21;;;;;;;35.88;18.58;;;;;;;;;;6203379;23;20038;-53
2022/03/24 09:14:46;;;;;;;32.92;18.20;;;;;;;;;;6204834;23;20075;-55
2022/03/24 09:17:11;;;;;;;29.17;18.60;;;;;;;;;;6202243;23;20032;-54
2022/03/24 09:19:37;;;;;;;36.03;19.88;;;;;;;;;;6177194;23;20040;-55
2022/03/24 09:22:04;;;;;;;32.78;19.52;;;;;;;;;;6203739;23;20541;-53
2022/03/24 09:24:29;;;;;;;33.97;19.13;;;;;;;;;;6203140;23;21309;-54
2022/03/24 09:26:54;;;;;;;32.50;18.48;;;;;;;;;;6203776;23;20040;-55
2022/03/24 09:29:21;;;;;;;27.58;17.08;;;;;;;;;;6202634;23;20068;-56
2022/03/24 09:31:47;;;;;;;36.20;19.17;;;;;;;;;;6204466;23;20025;-54
2022/03/24 09:34:12;;;;;;;30.50;17.90;;;;;;;;;;6204538;23;20084;-56
2022/03/24 09:36:39;;;;;;;44.05;19.23;;;;;;;;;;6205899;23;20023;-54
2022/03/24 09:39:04;;;;;;;35.05;19.13;;;;;;;;;;6205590;23;20028;-53
2022/03/24 09:41:30;;;;;;;39.03;19.85;;;;;;;;;;6204568;23;20070;-55
2022/03/24 09:43:57;;;;;;;33.42;18.25;;;;;;;;;;6204485;23;20004;-55
2022/03/24 09:46:23;;;;;;;36.50;18.67;;;;;;;;;;6205710;23;20449;-52
2022/03/24 09:48:48;;;;;;;43.15;22.17;;;;;;;;;;6204335;23;20029;-50
2022/03/24 09:51:14;;;;;;;38.83;21.35;;;;;;;;;;6201607;23;20016;-56
2022/03/24 09:53:40;;;;;;;37.80;19.83;;;;;;;;;;6205763;23;20032;-56
2022/03/24 09:56:06;;;;;;;36.70;20.00;;;;;;;;;;6204063;23;20009;-53
2022/03/24 09:58:31;;;;;;;44.83;20.33;;;;;;;;;;6205685;23;20064;-55
2022/03/24 10:00:56;;;;;;;42.28;19.88;;;;;;;;;;6207785;23;20028;-52
2022/03/24 10:03:22;;;;;;;42.65;22.85;;;;;;;;;;6205735;23;20024;-54
2022/03/24 10:05:53;;;;;;;35.08;20.33;;;;;;;;;;6203040;23;20398;-55
2022/03/24 10:08:18;;;;;;;40.22;21.85;;;;;;;;;;6207612;23;20013;-56
2022/03/24 10:10:44;;;;;;;50.45;21.83;;;;;;;;;;6177133;23;20086;-54
2022/03/24 10:13:10;;;;;;;44.28;21.65;;;;;;;;;;6205613;23;20009;-52
2022/03/24 10:15:37;;;;;;;40.70;21.02;;;;;;;;;;6207541;23;20024;-54
2022/03/24 10:18:02;;;;;;;40.42;20.73;;;;;;;;;;6205949;23;20040;-53
2022/03/24 10:20:30;;;;;;;44.97;22.95;;;;;;;;;;6202837;23;20013;-53
2022/03/24 10:22:55;;;;;;;38.03;20.95;;;;;;;;;;6203752;23;20037;-53
2022/03/24 10:25:25;;;;;;;34.63;21.10;;;;;;;;;;6200904;23;20021;-51
2022/03/24 10:28:00;;;;;;;36.00;20.10;;;;;;;;;;6205005;23;20009;-54
2022/03/24 10:30:25;;;;;;;38.22;21.60;;;;;;;;;;6204934;23;20035;-52
2022/03/24 10:32:55;;;;;;;45.20;21.15;;;;;;;;;;6204021;23;20005;-56
2022/03/24 10:35:21;;;;;;;37.08;20.50;;;;;;;;;;6204542;23;20568;-51
2022/03/24 10:37:50;;;;;;;38.65;21.15;;;;;;;;;;6205633;23;20004;-51
2022/03/24 10:40:15;;;;;;;;;;;;;;;;;;6203851;23;20020;-55
2022/03/24 10:42:41;;;;;;;36.97;19.92;;;;;;;;;;6206790;23;19929;-54
2022/03/24 10:45:13;;;;;;;36.35;21.92;;;;;;;;;;6208233;23;20008;-55
2022/03/24 10:47:39;;;;;;;43.72;21.58;;;;;;;;;;6205509;23;20005;-54
2022/03/24 10:50:23;;;;;;;41.53;21.52;;;;;;;;;;6204993;23;20024;-50
2022/03/24 10:52:51;;;;;;;43.10;22.30;;;;;;;;;;6204988;23;20353;-54
2022/03/24 10:55:24;;;;;;;32.47;19.95;;;;;;;;;;6201299;23;20016;-50
2022/03/24 10:57:50;;;;;;;34.03;19.52;;;;;;;;;;6208584;23;20012;-54
2022/03/24 11:00:15;;;;;;;45.28;20.52;;;;;;;;;;6200822;23;20013;-51
2022/03/24 11:02:40;;;;;;;36.05;21.10;;;;;;;;;;6206403;23;20074;-54
2022/03/24 11:05:12;;;;;;;33.17;18.88;;;;;;;;;;6208009;23;20066;-54
2022/03/24 11:07:38;;;;;;;44.85;19.50;;;;;;;;;;6206963;23;20470;-53
2022/03/24 11:10:13;;;;;;;33.55;17.23;;;;;;;;;;6206782;23;20036;-54
2022/03/24 11:12:39;;;;;;;34.65;16.98;;;;;;;;;;6207785;23;20032;-53
2022/03/24 11:15:07;;;;;;;28.65;17.05;;;;;;;;;;6209594;23;20020;-55
2022/03/24 11:17:34;;;;;;;35.25;18.70;;;;;;;;;;6209052;23;20016;-53
2022/03/24 11:20:03;;;;;;;35.83;17.98;;;;;;;;;;6210095;23;20008;-52
2022/03/24 11:22:46;;;;;;;31.88;16.70;;;;;;;;;;6207368;23;20017;-54
2022/03/24 11:25:12;;;;;;;33.85;18.15;;;;;;;;;;6207915;23;20579;-52
2022/03/24 11:27:38;;;;;;;36.00;16.77;;;;;;;;;;6209308;23;20031;-53
2022/03/24 11:30:05;;;;;;;45.53;17.15;;;;;;;;;;6208210;23;20033;-54
2022/03/24 11:32:31;;;;;;;34.45;17.13;;;;;;;;;;6205977;23;20027;-53
2022/03/24 11:34:58;;;;;;;32.78;18.35;;;;;;;;;;6179650;23;20443;-51
2022/03/24 11:37:23;;;;;;;32.60;17.63;;;;;;;;;;6208193;23;20090;-49
2022/03/24 11:40:04;;;;;;;28.73;16.55;;;;;;;;;;6202093;23;20662;-56
2022/03/24 11:42:29;;;;;;;32.90;16.27;;;;;;;;;;6206544;23;20013;-53
2022/03/24 11:45:00;;;;;;;30.73;17.20;;;;;;;;;;6203636;23;20013;-55
2022/03/24 11:47:33;;;;;;;39.35;16.50;;;;;;;;;;6209053;23;20013;-55
2022/03/24 11:50:06;;;;;;;30.80;16.20;;;;;;;;;;6207024;23;20024;-52
2022/03/24 11:52:31;;;;;;;33.03;16.10;;;;;;;;;;6208551;23;20034;-55
2022/03/24 11:54:57;;;;;;;27.27;15.95;;;;;;;;;;6204217;23;20438;-52
2022/03/24 11:57:23;;;;;;;31.00;15.50;;;;;;;;;;6206908;23;20016;-53
2022/03/24 11:59:49;;;;;;;37.65;17.20;;;;;;;;;;6206978;23;20057;-53
2022/03/24 12:02:18;;;;;;;27.23;15.00;;;;;;;;;;6208514;23;20013;-53
2022/03/24 12:04:45;;;;;;;33.83;16.23;;;;;;;;;;6204728;23;20597;-57
2022/03/24 12:07:14;;;;;;;31.10;15.90;;;;;;;;;;6206252;23;20013;-54
2022/03/24 12:09:53;;;;;;;27.20;15.32;;;;;;;;;;6207068;23;20346;-52
2022/03/24 12:12:18;;;;;;;31.50;16.97;;;;;;;;;;6207253;23;20054;-52
2022/03/24 12:14:45;;;;;;;33.40;15.73;;;;;;;;;;6207172;23;20099;-51
2022/03/24 12:17:21;;;;;;;32.78;16.33;;;;;;;;;;6205076;23;20539;-50
2022/03/24 12:19:49;;;;;;;32.47;14.40;;;;;;;;;;6205466;23;20386;-50
2022/03/24 12:22:28;;;;;;;29.70;12.77;;;;;;;;;;6205477;23;20005;-52
2022/03/24 12:24:59;;;;;;;28.63;12.00;;;;;;;;;;6208632;23;20016;-52
2022/03/24 12:27:25;;;;;;;30.25;13.93;;;;;;;;;;6203345;23;20017;-53
2022/03/24 12:30:09;;;;;;;33.35;14.80;;;;;;;;;;6208484;23;20005;-50
2022/03/24 12:32:34;;;;;;;38.05;16.38;;;;;;;;;;6180374;23;20032;-53
2022/03/24 12:35:00;;;;;;;34.58;16.30;;;;;;;;;;6208113;23;20012;-53
2022/03/24 12:37:25;;;;;;;27.80;14.50;;;;;;;;;;6206128;23;20024;-54
2022/03/24 12:40:05;;;;;;;31.70;13.33;;;;;;;;;;6208267;23;20009;-53
2022/03/24 12:42:51;;;;;;;33.30;16.35;;;;;;;;;;6204661;23;20219;-53
2022/03/24 12:45:18;;;;;;;35.80;14.95;;;;;;;;;;6207487;23;20023;-52
2022/03/24 12:47:45;;;;;;;30.90;14.98;;;;;;;;;;6175602;23;20072;-52
2022/03/24 12:50:16;;;;;;;31.23;14.43;;;;;;;;;;6177995;23;20353;-53
2022/03/24 12:53:02;;;;;;;36.42;15.80;;;;;;;;;;6205378;23;20016;-55
2022/03/24 12:55:33;;;;;;;33.47;15.00;;;;;;;;;;6180583;23;21004;-54
2022/03/24 12:58:00;;;;;;;25.35;12.40;;;;;;;;;;6179307;23;20013;-52
2022/03/24 13:00:27;;;;;;;21.52;11.13;;;;;;;;;;6207719;23;20017;-53
2022/03/24 13:02:53;;;;;;;21.73;9.80;;;;;;;;;;6205566;23;20009;-50
2022/03/24 13:05:25;;;;;;;23.90;10.75;;;;;;;;;;6208224;23;20023;-54
2022/03/24 13:07:52;;;;;;;26.83;11.93;;;;;;;;;;6209019;23;20056;-54
2022/03/24 13:10:18;;;;;;;23.45;10.75;;;;;;;;;;6204198;23;20021;-56
2022/03/24 13:12:45;;;;;;;28.50;11.55;;;;;;;;;;6207764;23;20050;-56
2022/03/24 13:15:18;;;;;;;23.60;10.80;;;;;;;;;;6204318;23;20063;-55
2022/03/24 13:17:43;;;;;;;23.27;11.43;;;;;;;;;;6200445;23;20150;-53
2022/03/24 13:20:08;;;;;;;25.70;12.50;;;;;;;;;;6177292;23;20016;-52
2022/03/24 13:22:34;;;;;;;23.05;11.05;;;;;;;;;;6198641;23;20008;-55
2022/03/24 13:25:05;;;;;;;29.65;11.60;;;;;;;;;;6199721;23;20086;-52
2022/03/24 13:27:32;;;;;;;25.83;12.05;;;;;;;;;;6199604;23;20051;-57
2022/03/24 13:29:58;;;;;;;37.60;13.15;;;;;;;;;;6172355;23;20021;-49
2022/03/24 13:32:24;;;;;;;28.98;12.98;;;;;;;;;;6170227;23;20050;-53
2022/03/24 13:35:00;;;;;;;32.67;12.70;;;;;;;;;;6197418;23;20008;-54
2022/03/24 13:37:29;;;;;;;25.60;10.88;;;;;;;;;;6195231;23;20012;-51
2022/03/24 13:39:56;;;;;;;24.35;11.75;;;;;;;;;;6199303;23;20079;-53
2022/03/24 13:42:22;;;;;;;23.65;10.60;;;;;;;;;;6201867;23;20013;-52
2022/03/24 13:44:47;;;;;;;27.20;11.80;;;;;;;;;;6201463;23;20015;-52
2022/03/24 13:47:13;;;;;;;27.52;12.50;;;;;;;;;;6205212;23;20001;-55
2022/03/24 13:49:39;;;;;;;17.63;11.05;;;;;;;;;;6203645;23;20019;-54
2022/03/24 13:52:05;;;;;;;23.25;10.85;;;;;;;;;;6206497;23;20021;-52
2022/03/24 13:54:31;;;;;;;26.90;11.13;;;;;;;;;;6205305;23;20017;-55
2022/03/24 13:56:57;;;;;;;21.88;9.68;;;;;;;;;;6208678;23;20319;-54
2022/03/24 13:59:26;;;;;;;19.05;9.73;;;;;;;;;;6205951;23;20024;-53
2022/03/24 14:01:58;;;;;;;22.08;8.98;;;;;;;;;;6206145;23;20009;-53
2022/03/24 14:04:23;;;;;;;19.38;9.07;;;;;;;;;;6207627;23;20847;-54
2022/03/24 14:07:01;;;;;;;23.27;7.60;;;;;;;;;;6206311;23;20008;-52
2022/03/24 14:09:26;;;;;;;22.67;9.75;;;;;;;;;;6207491;23;20023;-54
2022/03/24 14:12:01;;;;;;;17.00;7.80;;;;;;;;;;6206434;23;20024;-52
2022/03/24 14:14:27;;;;;;;19.65;8.82;;;;;;;;;;6206569;23;20021;-55